Rushville, Missouri
Current Conditions -  °F | °C
As of 11:53 PM on Wednesday 22 Oct 2014 (Local Time) from KSTJ Reporting Station
Clear Clear  
Wind Chill: 61°   Ceiling: Unl
Heat Index: 61°   Visibility: 10mi
Dew Point: 50°   Wind: 6mph
Humidity: 67%   Direction: 170°S
Pressure: 30.09"   Gusts: NA
Location:  39.59°N, 95.03°W
Report Text: KSTJ 230453Z AUTO 17005KT 10SM CLR 16/10 A3009 RMK AO2 SLP185 T01610100
Loading
Personal Weather Stations






























Interactive Weather Map
Tropical Storm Tracking
New forecast layout! Learn more

10-Day Weather Forecast

Advertisements
Track Severe Weather on mobile